Time;durP1;ratioP1;P1;durP2;ratioP2;P2;SDS_P1;SDS_P2;PMS_P1;PMS_P2;Temp;Humidity;BMP_temperature;BMP_pressure;BME280_temperature;BME280_humidity;BME280_pressure;Samples;Min_cycle;Max_cycle;Signal;HPM_P1;HPM_P2
2021/07/07 00:00:13;;;;;;;6.30;5.50;;;23.10;76.30;;;;;;5116652;28;20047;-86
2021/07/07 00:02:40;;;;;;;14.00;12.52;;;23.10;76.30;;;;;;5114690;28;20070;-86
2021/07/07 00:05:07;;;;;;;10.73;9.60;;;23.10;76.50;;;;;;5098404;28;20024;-86
2021/07/07 00:07:33;;;;;;;7.97;7.07;;;23.10;76.50;;;;;;5095264;28;20024;-86
2021/07/07 00:09:59;;;;;;;7.93;5.82;;;23.10;76.50;;;;;;5116041;28;20019;-86
2021/07/07 00:12:25;;;;;;;5.22;4.72;;;23.10;76.60;;;;;;5116316;28;20043;-86
2021/07/07 00:14:51;;;;;;;5.18;4.45;;;23.10;76.70;;;;;;5098021;28;20469;-87
2021/07/07 00:17:16;;;;;;;4.70;4.20;;;23.00;76.70;;;;;;5098075;28;20023;-86
2021/07/07 00:19:42;;;;;;;4.43;3.63;;;23.00;76.90;;;;;;5098136;28;20024;-84
2021/07/07 00:22:08;;;;;;;4.68;3.70;;;23.00;77.20;;;;;;5116013;28;20419;-85
2021/07/07 00:24:34;;;;;;;5.82;3.80;;;22.90;77.50;;;;;;5110913;28;20023;-85
2021/07/07 00:27:00;;;;;;;4.53;3.80;;;22.90;77.60;;;;;;5116143;28;20020;-86
2021/07/07 00:29:25;;;;;;;5.10;3.97;;;22.80;77.80;;;;;;5116355;28;20026;-85
2021/07/07 00:31:51;;;;;;;4.78;3.97;;;22.80;78.20;;;;;;5097635;28;20022;-86
2021/07/07 00:34:17;;;;;;;5.10;4.03;;;22.70;78.50;;;;;;5115724;28;20040;-87
2021/07/07 00:36:42;;;;;;;5.30;3.90;;;22.70;78.80;;;;;;5116131;28;20020;-86
2021/07/07 00:39:08;;;;;;;6.07;4.05;;;22.70;78.90;;;;;;5097944;28;20035;-86
2021/07/07 00:41:34;;;;;;;4.75;3.75;;;22.70;79.00;;;;;;5097807;28;20020;-85
2021/07/07 00:43:59;;;;;;;4.65;4.10;;;22.60;79.10;;;;;;5116218;28;20144;-85
2021/07/07 00:46:25;;;;;;;4.93;4.10;;;22.60;79.00;;;;;;5098208;28;20110;-86
2021/07/07 00:48:51;;;;;;;4.35;3.63;;;22.70;79.00;;;;;;5097423;28;20115;-87
2021/07/07 00:51:16;;;;;;;4.60;3.50;;;22.60;78.90;;;;;;5116045;28;20059;-87
2021/07/07 00:53:43;;;;;;;4.70;3.40;;;22.60;79.00;;;;;;5097158;28;20024;-86
2021/07/07 00:56:11;;;;;;;4.00;3.60;;;22.60;79.10;;;;;;5096983;28;20145;-85
2021/07/07 00:58:38;;;;;;;5.97;4.05;;;22.50;79.10;;;;;;5113312;28;20030;-85
2021/07/07 01:01:05;;;;;;;4.50;3.42;;;22.50;79.00;;;;;;5097388;28;20019;-85
2021/07/07 01:03:31;;;;;;;5.50;3.75;;;22.50;78.80;;;;;;5097468;28;20023;-86
2021/07/07 01:05:57;;;;;;;4.60;3.47;;;22.50;78.70;;;;;;5115430;28;20019;-86
2021/07/07 01:08:23;;;;;;;5.32;3.47;;;22.50;78.50;;;;;;5115231;28;20031;-86
2021/07/07 01:10:48;;;;;;;3.72;3.30;;;22.40;78.30;;;;;;5097245;28;20020;-86
2021/07/07 01:13:14;;;;;;;3.50;3.20;;;22.40;78.20;;;;;;5112743;28;20048;-86
2021/07/07 01:15:44;;;;;;;3.80;3.30;;;22.30;78.00;;;;;;5118295;28;20125;-87
2021/07/07 01:18:10;;;;;;;6.10;4.38;;;22.30;77.90;;;;;;5116478;28;20082;-86
2021/07/07 01:20:36;;;;;;;6.30;4.60;;;22.30;77.70;;;;;;5097501;28;20039;-86
2021/07/07 01:23:03;;;;;;;4.05;3.58;;;22.30;77.40;;;;;;5097058;28;20432;-86
2021/07/07 01:25:29;;;;;;;7.10;6.13;;;22.30;77.20;;;;;;5115114;28;20016;-85
2021/07/07 01:27:57;;;;;;;5.97;5.07;;;22.30;77.20;;;;;;5112525;28;20035;-85
2021/07/07 01:30:23;;;;;;;5.07;4.43;;;22.30;77.20;;;;;;5115054;28;20020;-86
2021/07/07 01:32:51;;;;;;;5.10;4.20;;;22.40;77.30;;;;;;5115162;28;20023;-86
2021/07/07 01:35:17;;;;;;;4.47;3.60;;;22.40;77.10;;;;;;5094019;28;20484;-86
2021/07/07 01:37:44;;;;;;;4.82;3.70;;;22.30;76.90;;;;;;5096922;28;20043;-86
2021/07/07 01:40:12;;;;;;;4.65;3.47;;;22.40;77.20;;;;;;5115103;28;20110;-86
2021/07/07 01:42:38;;;;;;;4.10;3.30;;;22.40;76.20;;;;;;5096875;28;20023;-85
2021/07/07 01:45:18;;;;;;;5.20;3.10;;;22.40;76.00;;;;;;5114863;28;20030;-86
2021/07/07 01:47:44;;;;;;;3.92;3.20;;;22.40;75.90;;;;;;5113391;28;20015;-86
2021/07/07 01:50:12;;;;;;;3.33;3.03;;;22.40;75.80;;;;;;5114332;28;20089;-86
2021/07/07 01:52:41;;;;;;;3.75;2.92;;;22.50;75.70;;;;;;5112522;28;20020;-85
2021/07/07 01:55:09;;;;;;;4.38;2.83;;;22.50;75.30;;;;;;5114772;28;20085;-85
2021/07/07 01:57:45;;;;;;;3.72;2.85;;;22.50;75.30;;;;;;5111781;28;20032;-86
2021/07/07 02:00:29;;;;;;;3.28;2.90;;;22.50;75.30;;;;;;5096390;28;20028;-85
2021/07/07 02:02:57;;;;;;;3.53;2.90;;;22.40;75.20;;;;;;5111256;28;20019;-86
2021/07/07 02:05:28;;;;;;;4.57;3.13;;;22.40;75.30;;;;;;5096393;28;20118;-86
2021/07/07 02:07:59;;;;;;;4.32;2.92;;;22.40;75.50;;;;;;5096192;28;20073;-86
2021/07/07 02:10:25;;;;;;;4.60;3.75;;;22.40;75.70;;;;;;5096007;28;20023;-85
2021/07/07 02:12:51;;;;;;;3.88;3.47;;;22.40;75.90;;;;;;5114044;28;20054;-86
2021/07/07 02:15:22;;;;;;;5.10;4.10;;;22.40;76.10;;;;;;5096009;28;20044;-84
2021/07/07 02:17:49;;;;;;;4.70;3.85;;;22.40;76.40;;;;;;5116898;28;20034;-86
2021/07/07 02:20:16;;;;;;;5.80;4.07;;;22.40;76.60;;;;;;5095959;28;20055;-85
2021/07/07 02:22:43;;;;;;;5.72;4.22;;;22.30;76.70;;;;;;5114071;28;20069;-85
2021/07/07 02:25:12;;;;;;;4.47;3.80;;;22.30;76.70;;;;;;5095787;28;20028;-86
2021/07/07 02:27:38;;;;;;;5.13;3.85;;;22.30;76.80;;;;;;5112215;28;20028;-85
2021/07/07 02:30:08;;;;;;;4.57;3.45;;;22.30;76.70;;;;;;5095982;28;20020;-86
2021/07/07 02:32:34;;;;;;;5.88;3.90;;;22.30;76.70;;;;;;5113956;28;20039;-85
2021/07/07 02:35:00;;;;;;;4.88;3.72;;;22.30;76.70;;;;;;5114371;28;20503;-85
2021/07/07 02:37:26;;;;;;;5.35;3.78;;;22.30;76.50;;;;;;5114063;28;20377;-85
2021/07/07 02:39:51;;;;;;;4.43;3.47;;;22.30;76.50;;;;;;5114147;28;20487;-84
2021/07/07 02:42:17;;;;;;;4.43;3.25;;;22.30;76.30;;;;;;5095178;28;20119;-86
2021/07/07 02:44:43;;;;;;;5.35;3.30;;;22.30;76.20;;;;;;5095518;28;20058;-85
2021/07/07 02:47:09;;;;;;;5.40;3.47;;;22.30;75.90;;;;;;5095374;28;20052;-87
2021/07/07 02:49:35;;;;;;;4.10;3.50;;;22.30;75.90;;;;;;5094965;28;20126;-86
2021/07/07 02:52:01;;;;;;;5.05;3.30;;;22.20;75.70;;;;;;5095481;28;20093;-87
2021/07/07 02:54:26;;;;;;;4.30;3.40;;;22.20;75.50;;;;;;5113313;28;20043;-87
2021/07/07 02:56:52;;;;;;;3.70;3.05;;;22.20;75.50;;;;;;5095326;28;20057;-86
2021/07/07 02:59:18;;;;;;;3.53;2.97;;;22.20;75.60;;;;;;5096712;28;20106;-86
2021/07/07 03:01:44;;;;;;;3.20;2.70;;;22.20;75.50;;;;;;5113495;28;20028;-85
2021/07/07 03:04:09;;;;;;;3.45;3.08;;;22.10;75.40;;;;;;5113627;28;20104;-85
2021/07/07 03:06:35;;;;;;;4.35;3.08;;;22.10;75.40;;;;;;5094754;28;20069;-86
2021/07/07 03:09:03;;;;;;;3.47;3.00;;;22.10;75.50;;;;;;5094752;28;20020;-87
2021/07/07 03:11:29;;;;;;;3.75;2.92;;;22.10;75.50;;;;;;5113069;28;20047;-86
2021/07/07 03:13:56;;;;;;;3.28;2.75;;;22.10;75.50;;;;;;5094945;28;20482;-86
2021/07/07 03:16:24;;;;;;;3.33;2.80;;;22.10;75.40;;;;;;5112403;28;20015;-87
2021/07/07 03:18:50;;;;;;;3.50;2.70;;;22.20;75.40;;;;;;5113240;28;20023;-86
2021/07/07 03:21:16;;;;;;;3.38;2.80;;;22.20;75.40;;;;;;5095111;28;20148;-86
2021/07/07 03:23:41;;;;;;;2.97;2.67;;;22.20;75.40;;;;;;5113024;28;20418;-85
2021/07/07 03:26:07;;;;;;;3.33;2.90;;;22.20;75.20;;;;;;5113100;28;20076;-86
2021/07/07 03:28:33;;;;;;;3.25;2.85;;;22.20;75.20;;;;;;5094754;28;20462;-86
2021/07/07 03:30:58;;;;;;;3.20;2.90;;;22.20;75.10;;;;;;5095831;28;20026;-86
2021/07/07 03:33:25;;;;;;;4.22;3.03;;;22.10;75.00;;;;;;5113081;28;20019;-86
2021/07/07 03:35:50;;;;;;;3.78;2.90;;;22.10;75.00;;;;;;5095692;28;20056;-85
2021/07/07 03:38:19;;;;;;;3.88;2.88;;;22.20;75.00;;;;;;5096701;28;20051;-87
2021/07/07 03:40:45;;;;;;;2.70;2.50;;;22.20;75.50;;;;;;5096888;28;20114;-86
2021/07/07 03:43:11;;;;;;;3.42;3.00;;;22.10;74.80;;;;;;5097189;28;20063;-87
2021/07/07 03:45:37;;;;;;;3.47;2.90;;;22.10;74.70;;;;;;5096628;28;20480;-86
2021/07/07 03:48:03;;;;;;;3.53;3.00;;;22.20;74.70;;;;;;5114595;28;20035;-85
2021/07/07 03:50:29;;;;;;;4.95;3.17;;;22.20;74.70;;;;;;5092685;28;20514;-86
2021/07/07 03:52:55;;;;;;;3.38;2.88;;;22.20;74.70;;;;;;5092823;28;20078;-86
2021/07/07 03:55:24;;;;;;;3.40;3.00;;;22.20;74.50;;;;;;5093982;28;20485;-86
2021/07/07 03:57:49;;;;;;;3.38;3.05;;;22.30;74.40;;;;;;5093820;28;20157;-85
2021/07/07 04:00:22;;;;;;;3.38;3.00;;;22.30;74.20;;;;;;5096575;28;20103;-86
2021/07/07 04:02:48;;;;;;;4.00;3.20;;;22.40;74.20;;;;;;5094296;28;20030;-86
2021/07/07 04:05:14;;;;;;;3.88;3.00;;;22.40;73.90;;;;;;5092568;28;20032;-86
2021/07/07 04:07:40;;;;;;;3.63;2.90;;;22.50;73.90;;;;;;5093241;28;20056;-86
2021/07/07 04:10:07;;;;;;;4.53;2.97;;;22.40;73.70;;;;;;5093168;28;20412;-86
2021/07/07 04:12:34;;;;;;;3.47;2.92;;;22.50;73.60;;;;;;5093274;28;20130;-86
2021/07/07 04:15:00;;;;;;;3.83;2.65;;;22.50;73.60;;;;;;5094224;28;20130;-86
2021/07/07 04:17:26;;;;;;;3.60;3.00;;;22.50;73.40;;;;;;5092912;28;20064;-86
2021/07/07 04:19:51;;;;;;;2.60;2.40;;;22.50;73.40;;;;;;5094332;28;20032;-87
2021/07/07 04:22:17;;;;;;;2.72;2.42;;;22.50;73.20;;;;;;5094023;28;20397;-87
2021/07/07 04:24:43;;;;;;;3.63;2.70;;;22.60;73.10;;;;;;5093760;28;20028;-88
2021/07/07 04:27:11;;;;;;;3.10;2.63;;;22.60;72.80;;;;;;5096119;28;20052;-88
2021/07/07 04:29:37;;;;;;;3.50;2.50;;;22.60;72.80;;;;;;5099057;28;20025;-87
2021/07/07 04:32:03;;;;;;;2.92;2.50;;;22.70;72.80;;;;;;5102140;28;20088;-87
2021/07/07 04:34:29;;;;;;;3.25;2.47;;;22.80;72.50;;;;;;5101545;28;20039;-86
2021/07/07 04:36:57;;;;;;;3.28;2.40;;;22.80;72.30;;;;;;5096241;28;20024;-86
2021/07/07 04:39:22;;;;;;;3.35;2.63;;;22.90;72.20;;;;;;5096674;28;20031;-88
2021/07/07 04:41:48;;;;;;;2.55;2.22;;;23.00;72.00;;;;;;5097065;28;20028;-87
2021/07/07 04:44:14;;;;;;;3.15;2.78;;;23.00;71.80;;;;;;5097138;28;20020;-86
2021/07/07 04:46:40;;;;;;;2.78;2.20;;;23.00;71.30;;;;;;5097210;28;20024;-87
2021/07/07 04:49:05;;;;;;;3.00;2.55;;;23.10;71.30;;;;;;5095512;28;20027;-88
2021/07/07 04:51:31;;;;;;;3.53;2.30;;;23.10;71.20;;;;;;5116928;28;20056;-86
2021/07/07 04:53:57;;;;;;;2.10;1.90;;;23.00;71.10;;;;;;5098687;28;20487;-90
2021/07/07 04:56:23;;;;;;;3.13;2.30;;;23.10;71.10;;;;;;5098319;28;20530;-87
2021/07/07 04:58:49;;;;;;;2.45;2.10;;;23.00;71.10;;;;;;5098864;28;20027;-89
2021/07/07 05:01:14;;;;;;;2.50;2.30;;;23.10;71.10;;;;;;5116858;28;20027;-85
2021/07/07 05:03:40;;;;;;;2.97;2.30;;;23.10;71.00;;;;;;5100032;28;20055;-86
2021/07/07 05:06:06;;;;;;;2.42;2.10;;;23.10;71.00;;;;;;5116105;28;20020;-86
2021/07/07 05:08:32;;;;;;;2.97;2.55;;;23.20;71.00;;;;;;5098538;28;20084;-86
2021/07/07 05:10:58;;;;;;;3.78;2.40;;;23.20;71.00;;;;;;5098811;28;20020;-85
2021/07/07 05:13:24;;;;;;;2.90;2.40;;;23.20;70.90;;;;;;5098629;28;20028;-87
2021/07/07 05:15:52;;;;;;;6.85;2.40;;;23.30;70.90;;;;;;5097281;28;20036;-86
2021/07/07 05:18:18;;;;;;;2.33;2.13;;;23.40;70.80;;;;;;5100391;28;20515;-84
2021/07/07 05:20:45;;;;;;;2.95;2.10;;;23.50;70.60;;;;;;5095582;28;20099;-84
2021/07/07 05:23:10;;;;;;;3.03;2.22;;;23.60;70.40;;;;;;5095942;28;20020;-83
2021/07/07 05:25:37;;;;;;;4.00;2.58;;;23.60;70.20;;;;;;5095676;28;20116;-82
2021/07/07 05:28:04;;;;;;;3.20;2.10;;;23.80;70.30;;;;;;5083540;28;20386;-84
2021/07/07 05:30:30;;;;;;;3.50;2.63;;;23.80;70.10;;;;;;5096591;28;20057;-86
2021/07/07 05:32:57;;;;;;;5.20;4.57;;;23.90;69.90;;;;;;5124123;28;20030;-90
2021/07/07 05:35:23;;;;;;;8.55;6.00;;;23.90;69.60;;;;;;5108135;28;20080;-90
2021/07/07 05:37:49;;;;;;;5.05;3.88;;;24.00;69.60;;;;;;5105756;28;20024;-89
2021/07/07 05:40:16;;;;;;;3.83;3.40;;;24.10;69.40;;;;;;5097433;28;20114;-89
2021/07/07 05:42:44;;;;;;;3.45;2.88;;;24.10;69.20;;;;;;5115526;28;20460;-87
2021/07/07 05:45:10;;;;;;;3.45;2.78;;;24.20;69.20;;;;;;5097141;28;20023;-88
2021/07/07 05:47:36;;;;;;;2.70;2.50;;;24.30;69.20;;;;;;5115344;28;20461;-88
2021/07/07 05:50:02;;;;;;;2.80;2.33;;;24.30;69.10;;;;;;5096424;28;20048;-88
2021/07/07 05:52:28;;;;;;;3.10;2.40;;;24.40;69.00;;;;;;5098433;28;20492;-88
2021/07/07 05:54:55;;;;;;;3.47;2.33;;;24.50;68.40;;;;;;5113838;28;20121;-87
2021/07/07 05:57:24;;;;;;;3.33;2.50;;;24.60;68.30;;;;;;5115416;28;20054;-85
2021/07/07 05:59:51;;;;;;;3.60;2.33;;;24.60;68.10;;;;;;5096036;28;20024;-88
2021/07/07 06:02:17;;;;;;;3.75;2.30;;;24.70;68.10;;;;;;5097265;28;20051;-86
2021/07/07 06:04:43;;;;;;;23.10;17.67;;;24.70;67.80;;;;;;5097418;28;20038;-87
2021/07/07 06:07:09;;;;;;;11.95;9.60;;;24.80;67.60;;;;;;5117138;28;20023;-88
2021/07/07 06:09:35;;;;;;;6.82;5.38;;;24.90;67.40;;;;;;5127974;28;20036;-87
2021/07/07 06:12:00;;;;;;;4.43;3.53;;;24.90;67.10;;;;;;5097172;28;20473;-87
2021/07/07 06:14:26;;;;;;;18.90;14.00;;;24.90;67.00;;;;;;5116008;28;20031;-91
2021/07/07 06:16:55;;;;;;;10.45;8.45;;;24.90;67.00;;;;;;5097864;28;20024;-89
2021/07/07 06:19:23;;;;;;;7.03;5.15;;;24.90;66.80;;;;;;5115522;28;20020;-88
2021/07/07 06:21:52;;;;;;;4.70;3.75;;;24.90;66.90;;;;;;5097165;28;20024;-87
2021/07/07 06:24:18;;;;;;;4.03;2.80;;;24.90;67.00;;;;;;5115182;28;20500;-87
2021/07/07 06:26:44;;;;;;;2.65;2.33;;;25.00;66.90;;;;;;5115772;28;20024;-89
2021/07/07 06:29:11;;;;;;;3.22;2.58;;;25.10;66.70;;;;;;5097794;28;20031;-88
2021/07/07 06:31:37;;;;;;;3.05;2.20;;;25.20;66.50;;;;;;5097441;28;20031;-88
2021/07/07 06:34:02;;;;;;;3.55;2.30;;;25.30;66.50;;;;;;5096844;28;20520;-88
2021/07/07 06:36:28;;;;;;;16.67;12.07;;;25.50;66.30;;;;;;5097186;28;20023;-86
2021/07/07 06:38:54;;;;;;;15.95;12.70;;;25.70;65.90;;;;;;5117232;28;20027;-88
2021/07/07 06:41:19;;;;;;;11.00;7.20;;;26.00;65.30;;;;;;5097725;28;20023;-87
2021/07/07 06:43:45;;;;;;;6.85;4.70;;;26.10;64.60;;;;;;5114142;28;20027;-89
2021/07/07 06:46:11;;;;;;;3.78;3.15;;;26.20;64.00;;;;;;5096966;28;20095;-89
2021/07/07 06:48:36;;;;;;;3.83;2.95;;;26.30;63.80;;;;;;5096773;28;20019;-89
2021/07/07 06:51:02;;;;;;;4.13;2.95;;;26.30;63.60;;;;;;5096941;28;20096;-89
2021/07/07 06:53:28;;;;;;;4.63;3.22;;;26.40;63.00;;;;;;5115106;28;20027;-90
2021/07/07 06:55:54;;;;;;;4.00;2.63;;;26.30;62.70;;;;;;5097754;28;20039;-90
2021/07/07 06:58:20;;;;;;;2.75;2.38;;;26.20;62.80;;;;;;5096759;28;20120;-89
2021/07/07 07:00:45;;;;;;;3.20;2.50;;;26.00;62.80;;;;;;5094982;28;20534;-89
2021/07/07 07:03:11;;;;;;;4.57;2.65;;;26.00;62.80;;;;;;5094579;28;20409;-90
2021/07/07 07:05:37;;;;;;;4.10;2.75;;;25.80;62.80;;;;;;5094572;28;20027;-89
2021/07/07 07:08:03;;;;;;;2.83;2.33;;;25.80;63.00;;;;;;5094411;28;20277;-89
2021/07/07 07:10:29;;;;;;;4.10;2.58;;;25.80;63.20;;;;;;5113349;28;20031;-89
2021/07/07 07:12:54;;;;;;;3.67;2.42;;;25.80;63.30;;;;;;5094337;28;20023;-90
2021/07/07 07:15:20;;;;;;;5.20;2.78;;;25.90;63.50;;;;;;5096164;28;20053;-89
2021/07/07 07:17:46;;;;;;;2.60;2.33;;;25.90;63.60;;;;;;5096655;28;20454;-88
2021/07/07 07:20:17;;;;;;;3.58;2.63;;;26.00;63.50;;;;;;5110579;28;20024;-87
2021/07/07 07:22:44;;;;;;;5.22;2.60;;;26.00;63.10;;;;;;5102012;28;20110;-89
2021/07/07 07:25:11;;;;;;;3.90;2.45;;;26.10;63.20;;;;;;5096674;28;20039;-88
2021/07/07 07:27:37;;;;;;;3.70;2.35;;;26.20;63.30;;;;;;5096410;28;20058;-89
2021/07/07 07:30:07;;;;;;;3.00;2.30;;;26.20;63.10;;;;;;5114560;28;20096;-89
2021/07/07 07:32:32;;;;;;;3.90;2.38;;;26.30;62.80;;;;;;5096266;28;20030;-87
2021/07/07 07:34:58;;;;;;;4.53;2.30;;;26.30;62.80;;;;;;5096148;28;20040;-88
2021/07/07 07:37:26;;;;;;;2.40;2.20;;;26.40;62.70;;;;;;5096671;28;20020;-89
2021/07/07 07:39:55;;;;;;;2.72;1.95;;;26.40;62.00;;;;;;5113804;28;20020;-88
2021/07/07 07:42:21;;;;;;;2.53;2.30;;;26.40;61.70;;;;;;5098344;28;20054;-87
2021/07/07 07:44:47;;;;;;;2.60;2.35;;;26.40;61.60;;;;;;5100906;28;20115;-87
2021/07/07 07:47:17;;;;;;;2.90;2.17;;;26.40;61.50;;;;;;5103011;28;20500;-87
2021/07/07 07:49:43;;;;;;;2.40;2.20;;;26.40;61.20;;;;;;5122200;28;20085;-88
2021/07/07 07:52:09;;;;;;;2.45;2.15;;;26.40;61.20;;;;;;5115036;28;20028;-88
2021/07/07 07:54:35;;;;;;;2.60;2.20;;;26.40;61.10;;;;;;5095944;28;20473;-87
2021/07/07 07:57:01;;;;;;;3.33;2.60;;;26.50;61.00;;;;;;5114631;28;20031;-88
2021/07/07 07:59:27;;;;;;;2.67;2.10;;;26.50;60.70;;;;;;5114144;28;20031;-88
2021/07/07 08:01:53;;;;;;;2.10;1.90;;;26.60;60.50;;;;;;5115829;28;20027;-88
2021/07/07 08:04:19;;;;;;;2.92;2.05;;;26.70;60.30;;;;;;5100411;28;20426;-87
2021/07/07 08:06:46;;;;;;;2.95;2.10;;;26.70;60.30;;;;;;5118308;28;20020;-88
2021/07/07 08:09:12;;;;;;;2.33;2.13;;;26.90;60.30;;;;;;5099858;28;20350;-88
2021/07/07 08:11:39;;;;;;;4.07;2.15;;;27.00;60.20;;;;;;5099665;28;20024;-88
2021/07/07 08:14:04;;;;;;;2.38;2.17;;;27.10;60.00;;;;;;5117877;28;20034;-89
2021/07/07 08:16:30;;;;;;;2.92;2.53;;;27.20;59.20;;;;;;5117859;28;20027;-87
2021/07/07 08:18:59;;;;;;;2.50;2.20;;;27.30;58.60;;;;;;5099373;28;20388;-89
2021/07/07 08:21:24;;;;;;;4.68;2.83;;;27.40;58.10;;;;;;5099404;28;20110;-88
2021/07/07 08:23:50;;;;;;;2.40;2.00;;;27.50;58.00;;;;;;5099492;28;20030;-88
2021/07/07 08:26:16;;;;;;;2.60;2.17;;;27.60;57.90;;;;;;5105949;28;20042;-88
2021/07/07 08:28:42;;;;;;;5.15;2.22;;;27.80;57.70;;;;;;5105566;28;20053;-87
2021/07/07 08:31:08;;;;;;;4.03;2.20;;;28.00;57.60;;;;;;5118125;28;20063;-88
2021/07/07 08:33:34;;;;;;;3.15;2.40;;;28.10;57.20;;;;;;5099207;28;20032;-88
2021/07/07 08:35:59;;;;;;;2.95;2.60;;;28.20;56.80;;;;;;5099330;28;20124;-89
2021/07/07 08:38:25;;;;;;;2.50;2.30;;;28.30;56.90;;;;;;5118279;28;20024;-89
2021/07/07 08:40:51;;;;;;;2.85;2.50;;;28.60;57.30;;;;;;5099368;28;20076;-89
2021/07/07 08:43:17;;;;;;;4.18;2.60;;;29.00;57.60;;;;;;5117474;28;20027;-88
2021/07/07 08:45:43;;;;;;;4.38;2.50;;;29.30;56.40;;;;;;5098952;28;20039;-89
2021/07/07 08:48:12;;;;;;;5.25;2.53;;;29.50;55.60;;;;;;5117308;28;20022;-89
2021/07/07 08:50:40;;;;;;;3.13;2.58;;;29.50;54.70;;;;;;5098874;28;20047;-89
2021/07/07 08:53:12;;;;;;;3.53;2.70;;;29.40;54.30;;;;;;5122160;28;20032;-89
2021/07/07 08:56:01;;;;;;;3.67;2.60;;;29.30;54.40;;;;;;5118474;28;20499;-88
2021/07/07 08:58:27;;;;;;;3.50;2.80;;;29.30;53.00;;;;;;5099108;28;20119;-88
2021/07/07 09:00:57;;;;;;;5.75;2.60;;;29.30;54.40;;;;;;5117911;28;20051;-88
2021/07/07 09:03:22;;;;;;;3.35;2.38;;;29.40;54.00;;;;;;5101342;28;20095;-88
2021/07/07 09:05:57;;;;;;;3.83;2.63;;;29.40;54.00;;;;;;5117584;28;20496;-87
2021/07/07 09:08:30;;;;;;;4.30;2.50;;;29.50;53.60;;;;;;5117166;28;20102;-87
2021/07/07 09:11:13;;;;;;;4.93;2.30;;;29.70;51.80;;;;;;5117222;28;20094;-88
2021/07/07 09:13:39;;;;;;;4.18;2.67;;;29.70;52.80;;;;;;5097698;28;20115;-89
2021/07/07 09:16:14;;;;;;;4.57;2.70;;;29.70;52.70;;;;;;5116569;28;20032;-89
2021/07/07 09:18:39;;;;;;;2.75;2.40;;;29.60;51.90;;;;;;5099174;28;20031;-89
2021/07/07 09:21:28;;;;;;;3.60;2.53;;;29.50;52.40;;;;;;5116825;28;20056;-88
2021/07/07 09:23:55;;;;;;;2.83;2.42;;;29.50;50.50;;;;;;5117351;28;20031;-88
2021/07/07 09:26:37;;;;;;;3.67;2.70;;;29.30;52.30;;;;;;5118871;28;20023;-89
2021/07/07 09:29:03;;;;;;;3.13;2.53;;;29.30;50.80;;;;;;5116904;28;20106;-88
2021/07/07 09:31:35;;;;;;;2.95;2.38;;;29.40;52.50;;;;;;5098259;28;20034;-88
2021/07/07 09:34:23;;;;;;;2.40;2.20;;;29.50;52.30;;;;;;5099177;28;20023;-87
2021/07/07 09:36:56;;;;;;;3.70;2.40;;;29.60;51.20;;;;;;5098167;28;20080;-88
2021/07/07 09:39:22;;;;;;;2.97;2.53;;;29.80;52.30;;;;;;5116328;28;20026;-88
2021/07/07 09:41:51;;;;;;;2.50;2.30;;;30.10;52.70;;;;;;5116489;28;20027;-88
2021/07/07 09:44:18;;;;;;;5.70;2.75;;;30.70;53.40;;;;;;5097939;28;20381;-89
2021/07/07 09:46:44;;;;;;;3.60;3.10;;;31.30;53.10;;;;;;5097585;28;20046;-87
2021/07/07 09:49:11;;;;;;;5.10;3.15;;;31.70;51.20;;;;;;5097472;28;20023;-87
2021/07/07 09:51:38;;;;;;;3.50;3.08;;;31.90;50.70;;;;;;5097367;28;20075;-88
2021/07/07 09:54:06;;;;;;;3.63;2.92;;;32.20;51.00;;;;;;5101139;28;20028;-87
2021/07/07 09:56:33;;;;;;;3.13;2.83;;;32.60;50.60;;;;;;5098569;28;20026;-90
2021/07/07 09:59:03;;;;;;;4.07;3.03;;;32.80;49.80;;;;;;5116253;28;20024;-89
2021/07/07 10:01:32;;;;;;;4.20;2.80;;;33.00;49.60;;;;;;5097437;28;20027;-88
2021/07/07 10:03:59;;;;;;;3.13;2.72;;;33.20;49.20;;;;;;5115628;28;20031;-88
2021/07/07 10:06:25;;;;;;;2.83;2.55;;;33.10;48.50;;;;;;5116086;28;20027;-89
2021/07/07 10:08:53;;;;;;;3.67;2.38;;;32.90;48.00;;;;;;5098008;28;20020;-90
2021/07/07 10:11:20;;;;;;;2.83;2.35;;;32.70;48.20;;;;;;5117049;28;20075;-90
2021/07/07 10:13:46;;;;;;;3.00;2.60;;;32.60;48.90;;;;;;5117126;28;20023;-87
2021/07/07 10:16:16;;;;;;;4.55;2.88;;;32.80;49.50;;;;;;5098784;28;20078;-89
2021/07/07 10:18:42;;;;;;;3.65;2.60;;;33.30;49.10;;;;;;5118181;28;20410;-88
2021/07/07 10:21:08;;;;;;;3.38;2.92;;;33.70;48.70;;;;;;5115682;28;20373;-88
2021/07/07 10:23:38;;;;;;;3.08;2.50;;;34.10;48.00;;;;;;5100052;28;20024;-88
2021/07/07 10:26:06;;;;;;;2.85;2.65;;;34.30;47.30;;;;;;5101619;28;20028;-89
2021/07/07 10:28:32;;;;;;;2.95;2.63;;;34.30;46.80;;;;;;5097577;28;20122;-89
2021/07/07 10:31:04;;;;;;;2.60;2.40;;;34.30;46.90;;;;;;5097023;28;20465;-88
2021/07/07 10:33:33;;;;;;;2.75;2.47;;;34.50;46.40;;;;;;5097499;28;20457;-88
2021/07/07 10:36:21;;;;;;;3.72;2.70;;;34.70;46.60;;;;;;5097893;28;20035;-89
2021/07/07 10:39:02;;;;;;;2.45;2.25;;;34.90;43.60;;;;;;5097414;28;20024;-90
2021/07/07 10:41:44;;;;;;;3.45;2.40;;;35.00;43.30;;;;;;5097166;28;20019;-89
2021/07/07 10:44:23;;;;;;;3.75;2.30;;;35.10;42.90;;;;;;5115506;28;20016;-89
2021/07/07 10:47:06;;;;;;;2.75;2.40;;;35.20;45.20;;;;;;5097964;28;20028;-89
2021/07/07 10:49:46;;;;;;;2.63;2.10;;;35.40;43.80;;;;;;5117062;28;20024;-88
2021/07/07 10:52:17;;;;;;;3.88;2.20;;;35.50;39.40;;;;;;5117208;28;20024;-89
2021/07/07 10:54:55;;;;;;;2.75;2.20;;;35.60;43.10;;;;;;5105507;28;20131;-87
2021/07/07 10:57:23;;;;;;;2.85;2.15;;;35.80;41.00;;;;;;5104761;28;20032;-86
2021/07/07 10:59:54;;;;;;;2.17;1.92;;;35.90;43.10;;;;;;5101080;28;20116;-88
2021/07/07 11:02:27;;;;;;;2.35;1.70;;;36.00;42.60;;;;;;5119927;28;20031;-88
2021/07/07 11:07:44;;;;;;;3.10;2.13;;;36.10;41.50;;;;;;5102174;28;20039;-88
2021/07/07 11:10:16;;;;;;;2.60;1.92;;;36.20;42.10;;;;;;5096574;28;20030;-89
2021/07/07 11:12:55;;;;;;;2.20;2.00;;;36.30;41.60;;;;;;5097019;28;20453;-88
2021/07/07 11:15:25;;;;;;;2.13;2.03;;;36.40;40.50;;;;;;5096711;28;20070;-89
2021/07/07 11:17:52;;;;;;;2.53;2.33;;;36.50;41.70;;;;;;5080245;28;20469;-89
2021/07/07 11:20:23;;;;;;;2.30;2.10;;;36.80;41.30;;;;;;5096930;28;20020;-89
2021/07/07 11:23:06;;;;;;;3.25;2.08;;;36.90;40.60;;;;;;5096828;28;20026;-89
2021/07/07 11:25:34;;;;;;;2.25;1.92;;;37.00;38.50;;;;;;5101170;28;20039;-88
2021/07/07 11:28:02;;;;;;;2.22;2.03;;;37.00;40.30;;;;;;5097851;28;20110;-90
2021/07/07 11:30:28;;;;;;;2.77;2.50;;;37.00;40.10;;;;;;5097968;28;20063;-90
2021/07/07 11:32:57;;;;;;;3.10;2.30;;;37.10;40.10;;;;;;5102100;28;20027;-88
2021/07/07 11:35:24;;;;;;;;;;;37.30;39.90;;;;;;5103654;28;20036;-89
2021/07/07 11:38:26;;;;;;;2.63;2.00;;;37.20;38.30;;;;;;5108304;28;19904;-89
2021/07/07 11:40:53;;;;;;;3.80;2.50;;;37.40;36.90;;;;;;5106149;28;20027;-89
2021/07/07 11:43:30;;;;;;;2.67;2.05;;;37.50;39.50;;;;;;5101956;28;20027;-89
2021/07/07 11:46:02;;;;;;;2.20;2.00;;;37.80;37.20;;;;;;5119641;28;20104;-91
2021/07/07 11:48:32;;;;;;;2.42;2.10;;;37.90;38.00;;;;;;5102506;28;20461;-90
2021/07/07 11:51:07;;;;;;;2.00;1.80;;;38.00;38.70;;;;;;5119129;28;20055;-89
2021/07/07 11:53:54;;;;;;;2.20;2.00;;;38.10;37.90;;;;;;5100933;28;20046;-90
2021/07/07 11:56:30;;;;;;;2.47;1.90;;;38.20;37.20;;;;;;5125631;28;20432;-89
2021/07/07 11:59:03;;;;;;;3.58;2.15;;;38.30;37.60;;;;;;5101035;28;20496;-89
2021/07/07 12:01:37;;;;;;;2.03;1.90;;;38.40;38.20;;;;;;5101498;28;20020;-90
2021/07/07 12:04:27;;;;;;;3.00;2.00;;;38.60;37.50;;;;;;5100285;28;20024;-89
2021/07/07 12:06:56;;;;;;;2.10;1.90;;;38.70;36.30;;;;;;5100076;28;20032;-90
2021/07/07 12:09:28;;;;;;;3.60;2.10;;;38.60;37.30;;;;;;5100336;28;20024;-87
2021/07/07 12:12:07;;;;;;;2.05;1.88;;;38.60;37.00;;;;;;5117915;28;20030;-89
2021/07/07 12:14:38;;;;;;;3.42;1.92;;;38.60;37.00;;;;;;5098986;28;20044;-89
2021/07/07 12:17:04;;;;;;;2.70;2.00;;;38.50;36.60;;;;;;5100243;28;20059;-89
2021/07/07 12:19:31;;;;;;;2.72;2.20;;;38.50;36.90;;;;;;5118620;28;20054;-90
2021/07/07 12:21:59;;;;;;;2.53;2.00;;;38.60;36.90;;;;;;5100150;28;20235;-89
2021/07/07 12:24:35;;;;;;;2.83;1.83;;;38.60;37.50;;;;;;5101175;28;20028;-90
2021/07/07 12:27:09;;;;;;;3.50;1.98;;;38.80;35.90;;;;;;5108249;28;20252;-89
2021/07/07 12:29:47;;;;;;;2.13;1.92;;;38.80;36.70;;;;;;5120855;28;20027;-90
2021/07/07 12:32:25;;;;;;;2.75;1.90;;;38.90;36.70;;;;;;5101046;28;20024;-89
2021/07/07 12:34:53;;;;;;;1.98;1.83;;;39.00;36.60;;;;;;5119908;28;20038;-89
2021/07/07 12:37:23;;;;;;;2.88;2.10;;;39.00;36.60;;;;;;5122697;28;20023;-88
2021/07/07 12:39:56;;;;;;;3.42;2.20;;;39.00;36.50;;;;;;5107647;28;20089;-90
2021/07/07 12:42:31;;;;;;;2.22;2.03;;;39.00;36.20;;;;;;5125215;28;20047;-86
2021/07/07 12:45:08;;;;;;;2.83;2.10;;;39.10;36.10;;;;;;5106717;28;20058;-87
2021/07/07 12:47:34;;;;;;;2.97;1.80;;;39.20;35.20;;;;;;5099539;28;20504;-90
2021/07/07 12:50:00;;;;;;;2.17;1.98;;;39.10;35.90;;;;;;5117617;28;20062;-89
2021/07/07 12:52:31;;;;;;;2.33;1.83;;;39.20;35.80;;;;;;5098915;28;20023;-90